Time;durP1;ratioP1;P1;durP2;ratioP2;P2;SDS_P1;SDS_P2;PMS_P1;PMS_P2;Temp;Humidity;BMP_temperature;BMP_pressure;BME280_temperature;BME280_humidity;BME280_pressure;Samples;Min_cycle;Max_cycle;Signal;HPM_P1;HPM_P2
2023/01/27 00:01:56;;;;;;;4.57;2.00;;;8.20;80.30;;;;;;5077180;28;20515;-82
2023/01/27 00:04:22;;;;;;;3.35;2.00;;;8.30;80.40;;;;;;5078011;28;20028;-82
2023/01/27 00:06:48;;;;;;;4.68;2.20;;;8.20;80.30;;;;;;5077316;28;20032;-82
2023/01/27 00:09:14;;;;;;;5.68;2.20;;;8.20;80.30;;;;;;5060746;28;20130;-81
2023/01/27 00:14:24;;;;;;;4.00;2.17;;;8.20;80.30;;;;;;5094755;28;20028;-83
2023/01/27 00:16:49;;;;;;;4.50;2.20;;;8.20;80.30;;;;;;5076948;28;20103;-80
2023/01/27 00:19:18;;;;;;;3.53;2.10;;;8.20;80.30;;;;;;5077065;28;20043;-80
2023/01/27 00:24:35;;;;;;;2.78;2.05;;;8.20;80.40;;;;;;5095018;28;20047;-82
2023/01/27 00:27:07;;;;;;;2.92;2.05;;;8.20;80.30;;;;;;5094783;28;20031;-80
2023/01/27 00:29:37;;;;;;;3.25;2.28;;;8.20;80.30;;;;;;5076668;28;20032;-81
2023/01/27 00:34:48;;;;;;;3.75;2.15;;;8.20;80.40;;;;;;5095281;28;20115;-81
2023/01/27 00:37:14;;;;;;;2.65;2.10;;;8.10;80.30;;;;;;5076261;28;20052;-81
2023/01/27 00:39:40;;;;;;;4.82;2.25;;;8.10;80.30;;;;;;5076569;28;20028;-80
2023/01/27 00:42:08;;;;;;;2.80;2.10;;;8.10;80.30;;;;;;5076656;28;20469;-81
2023/01/27 00:44:34;;;;;;;4.55;2.10;;;8.10;80.30;;;;;;5076394;28;20131;-81
2023/01/27 00:47:00;;;;;;;3.13;2.25;;;8.10;80.30;;;;;;5076961;28;20050;-81
2023/01/27 00:49:26;;;;;;;3.88;2.10;;;8.10;80.30;;;;;;5076103;28;20028;-81
2023/01/27 00:51:51;;;;;;;4.00;2.40;;;8.10;80.30;;;;;;5059690;28;20028;-81
2023/01/27 00:54:17;;;;;;;3.78;2.03;;;8.10;80.30;;;;;;5093270;28;20024;-81
2023/01/27 00:56:45;;;;;;;3.22;2.47;;;8.10;80.30;;;;;;5059842;28;20546;-79
2023/01/27 00:59:11;;;;;;;3.40;2.10;;;8.10;80.30;;;;;;5076639;28;20020;-80
2023/01/27 01:01:38;;;;;;;3.42;2.30;;;8.10;80.30;;;;;;5076404;28;20388;-81
2023/01/27 01:04:04;;;;;;;3.28;2.50;;;8.10;80.30;;;;;;5076143;28;20123;-81
2023/01/27 01:06:30;;;;;;;3.47;2.42;;;8.10;80.30;;;;;;5076196;28;20027;-81
2023/01/27 01:08:56;;;;;;;3.92;2.63;;;8.00;80.20;;;;;;5076567;28;20028;-80
2023/01/27 01:11:23;;;;;;;3.35;2.80;;;8.10;80.30;;;;;;5075848;28;20027;-80
2023/01/27 01:13:49;;;;;;;5.20;2.63;;;8.00;80.20;;;;;;5076309;28;20084;-80
2023/01/27 01:16:20;;;;;;;3.45;2.17;;;8.00;80.90;;;;;;5059602;28;20050;-80
2023/01/27 01:18:46;;;;;;;3.20;2.20;;;8.00;80.20;;;;;;5076531;28;20032;-81
2023/01/27 01:21:12;;;;;;;4.00;2.20;;;8.00;80.20;;;;;;5076364;28;20024;-80
2023/01/27 01:23:40;;;;;;;3.28;2.30;;;8.00;80.20;;;;;;5075736;28;20032;-81
2023/01/27 01:26:09;;;;;;;5.65;2.83;;;8.00;80.20;;;;;;5076939;28;20062;-82
2023/01/27 01:28:35;;;;;;;2.75;2.13;;;8.00;80.20;;;;;;5075975;28;20032;-81
2023/01/27 01:31:11;;;;;;;2.95;2.58;;;8.00;80.20;;;;;;5059142;28;20062;-81
2023/01/27 01:33:37;;;;;;;3.80;2.72;;;8.00;80.20;;;;;;5059419;28;20044;-80
2023/01/27 01:36:05;;;;;;;3.10;2.42;;;8.00;80.20;;;;;;5076133;28;20039;-81
2023/01/27 01:38:31;;;;;;;4.20;2.50;;;8.00;80.20;;;;;;5075854;28;20040;-81
2023/01/27 01:40:56;;;;;;;3.72;2.60;;;8.00;80.30;;;;;;5092912;28;20032;-81
2023/01/27 01:43:22;;;;;;;3.85;2.63;;;8.00;80.30;;;;;;5075907;28;20028;-80
2023/01/27 01:45:51;;;;;;;4.43;2.58;;;8.00;80.30;;;;;;5076007;28;20031;-80
2023/01/27 01:48:24;;;;;;;3.58;2.53;;;7.90;80.30;;;;;;5076130;28;20535;-80
2023/01/27 01:51:25;;;;;;;3.40;2.58;;;8.00;80.30;;;;;;5075786;28;20035;-80
2023/01/27 01:54:13;;;;;;;3.90;2.55;;;7.90;80.30;;;;;;5060810;28;20040;-81
2023/01/27 01:56:39;;;;;;;3.55;2.63;;;7.90;80.20;;;;;;5075870;28;20035;-80
2023/01/27 01:59:13;;;;;;;3.85;2.63;;;7.90;80.20;;;;;;5059120;28;20028;-81
2023/01/27 02:01:39;;;;;;;;;;;7.90;80.30;;;;;;5076344;28;20038;-81
2023/01/27 02:04:12;;;;;;;3.33;2.80;;;7.90;80.20;;;;;;5058809;28;19904;-80
2023/01/27 02:07:01;;;;;;;4.85;2.80;;;7.90;80.20;;;;;;5093583;28;20028;-81
2023/01/27 02:09:27;;;;;;;5.88;2.72;;;7.80;80.20;;;;;;5076168;28;20070;-80
2023/01/27 02:11:53;;;;;;;6.65;3.10;;;7.80;80.20;;;;;;5059667;28;20089;-81
2023/01/27 02:14:19;;;;;;;4.60;2.92;;;7.90;80.30;;;;;;5079350;28;20051;-79
2023/01/27 02:16:45;;;;;;;4.18;3.00;;;7.80;80.30;;;;;;5079407;28;20050;-80
2023/01/27 02:19:21;;;;;;;4.70;2.92;;;7.80;80.30;;;;;;5079419;28;20028;-80
2023/01/27 02:21:49;;;;;;;4.53;3.00;;;7.90;80.40;;;;;;5079766;28;20083;-80
2023/01/27 02:24:15;;;;;;;4.43;2.75;;;7.80;80.30;;;;;;5079175;28;20111;-80
2023/01/27 02:26:44;;;;;;;4.38;3.10;;;7.80;80.30;;;;;;5096074;28;20036;-81
2023/01/27 02:29:13;;;;;;;4.50;3.30;;;7.80;80.30;;;;;;5078921;28;20035;-80
2023/01/27 02:31:40;;;;;;;4.47;3.10;;;7.80;80.30;;;;;;5078852;28;20032;-81
2023/01/27 02:34:15;;;;;;;3.97;3.03;;;7.80;80.30;;;;;;5062765;28;20376;-79
2023/01/27 02:36:46;;;;;;;4.93;3.10;;;7.80;80.30;;;;;;5078676;28;20028;-81
2023/01/27 02:39:15;;;;;;;5.35;3.60;;;7.80;80.30;;;;;;5078884;28;20035;-80
2023/01/27 02:41:53;;;;;;;4.00;3.17;;;7.80;80.30;;;;;;5078817;28;20036;-80
2023/01/27 02:44:19;;;;;;;5.63;3.50;;;7.80;80.30;;;;;;5078926;28;20031;-81
2023/01/27 02:46:45;;;;;;;4.72;3.22;;;7.80;80.30;;;;;;5078684;28;20028;-81
2023/01/27 02:49:11;;;;;;;5.03;3.67;;;7.80;80.30;;;;;;5078353;28;20495;-81
2023/01/27 02:51:38;;;;;;;7.72;3.80;;;7.80;80.30;;;;;;5079267;28;20054;-80
2023/01/27 02:54:05;;;;;;;6.45;3.60;;;7.80;80.30;;;;;;5061757;28;20115;-80
2023/01/27 02:56:31;;;;;;;5.82;3.80;;;7.80;80.30;;;;;;5079091;28;20032;-80
2023/01/27 02:58:57;;;;;;;6.13;4.10;;;7.80;80.30;;;;;;5078343;28;20016;-80
2023/01/27 03:01:31;;;;;;;5.95;3.90;;;7.70;80.30;;;;;;5078400;28;20024;-80
2023/01/27 03:03:58;;;;;;;6.22;4.40;;;7.80;80.30;;;;;;5061528;28;20426;-80
2023/01/27 03:06:24;;;;;;;7.32;4.35;;;7.70;80.30;;;;;;5061606;28;20078;-79
2023/01/27 03:08:50;;;;;;;6.28;4.07;;;7.70;80.30;;;;;;5078335;28;20028;-80
2023/01/27 03:12:18;;;;;;;5.80;4.45;;;7.70;80.30;;;;;;5078813;28;20036;-81
2023/01/27 03:14:06;;;;;;;6.25;4.30;;;7.70;80.30;;;;;;5077949;28;20040;-80
2023/01/27 03:19:16;;;;;;;5.80;4.28;;;7.70;80.30;;;;;;5078990;28;20032;-80
2023/01/27 03:21:44;;;;;;;7.47;4.75;;;7.70;80.30;;;;;;5061748;28;20499;-80
2023/01/27 03:24:10;;;;;;;6.03;4.47;;;7.70;80.30;;;;;;5076905;28;20020;-81
2023/01/27 03:26:39;;;;;;;6.95;4.78;;;7.70;80.30;;;;;;5077634;28;20032;-81
2023/01/27 03:31:51;;;;;;;6.60;4.55;;;7.70;80.30;;;;;;5077830;28;20036;-80
2023/01/27 03:34:18;;;;;;;7.13;4.82;;;7.70;80.30;;;;;;5078776;28;20472;-81
2023/01/27 03:47:44;;;;;;;6.68;4.88;;;7.70;80.30;;;;;;5094654;28;20062;-80
2023/01/27 03:50:17;;;;;;;7.75;5.35;;;7.70;80.30;;;;;;5077594;28;20060;-80
2023/01/27 03:53:01;;;;;;;7.07;4.90;;;7.60;80.30;;;;;;5077966;28;20036;-80
2023/01/27 03:55:29;;;;;;;7.82;5.15;;;7.60;80.30;;;;;;5077722;28;20028;-77
2023/01/27 03:57:55;;;;;;;7.18;5.40;;;7.60;80.30;;;;;;5077425;28;20038;-79
2023/01/27 04:00:22;;;;;;;7.78;5.50;;;7.60;80.30;;;;;;5095460;28;20063;-79
2023/01/27 04:08:16;;;;;;;7.93;5.40;;;7.60;80.30;;;;;;5077336;28;20028;-81
2023/01/27 04:11:53;;;;;;;7.10;5.35;;;7.60;80.30;;;;;;5061063;28;20035;-80
2023/01/27 04:13:27;;;;;;;6.90;4.97;;;7.60;80.30;;;;;;5077643;28;20040;-80
2023/01/27 04:15:54;;;;;;;7.25;5.53;;;7.60;80.30;;;;;;5077520;28;20088;-80
2023/01/27 04:18:19;;;;;;;7.93;5.63;;;7.60;80.40;;;;;;5077023;28;20032;-80
2023/01/27 04:20:45;;;;;;;7.70;5.43;;;7.60;80.40;;;;;;5076929;28;20492;-81
2023/01/27 04:23:11;;;;;;;7.18;4.70;;;7.60;80.30;;;;;;5060690;28;20537;-80
2023/01/27 04:25:36;;;;;;;7.50;5.20;;;7.60;80.30;;;;;;5076975;28;20028;-80
2023/01/27 04:28:07;;;;;;;6.53;5.00;;;7.60;80.30;;;;;;5095108;28;20093;-80
2023/01/27 04:30:33;;;;;;;7.47;5.55;;;7.60;80.30;;;;;;5077158;28;20028;-80
2023/01/27 04:33:01;;;;;;;6.70;4.90;;;7.60;80.40;;;;;;5076613;28;20133;-81
2023/01/27 04:35:27;;;;;;;6.60;4.85;;;7.60;80.40;;;;;;5060254;28;20029;-81
2023/01/27 04:37:52;;;;;;;6.60;4.93;;;7.60;80.30;;;;;;5060299;28;20047;-80
2023/01/27 04:40:18;;;;;;;7.13;4.85;;;7.60;80.30;;;;;;5094606;28;20032;-81
2023/01/27 04:42:44;;;;;;;7.88;4.68;;;7.60;80.40;;;;;;5060110;28;20036;-80
2023/01/27 04:45:14;;;;;;;7.00;4.68;;;7.60;80.40;;;;;;5093356;28;20480;-81
2023/01/27 04:47:40;;;;;;;6.38;4.88;;;7.60;80.30;;;;;;5076611;28;20035;-79
2023/01/27 04:50:06;;;;;;;5.75;4.40;;;7.60;80.30;;;;;;5076746;28;20036;-80
2023/01/27 04:52:32;;;;;;;6.65;4.38;;;7.60;80.30;;;;;;5077120;28;20035;-80
2023/01/27 04:54:58;;;;;;;6.20;4.72;;;7.60;80.30;;;;;;5076280;28;20417;-80
2023/01/27 04:57:24;;;;;;;5.90;4.35;;;7.60;80.30;;;;;;5094966;28;20097;-80
2023/01/27 04:59:50;;;;;;;7.07;4.97;;;7.60;80.30;;;;;;5076556;28;20028;-79
2023/01/27 05:02:15;;;;;;;6.05;4.35;;;7.50;80.30;;;;;;5094399;28;20384;-81
2023/01/27 05:04:41;;;;;;;6.57;4.97;;;7.60;80.30;;;;;;5094576;28;20028;-81
2023/01/27 05:07:08;;;;;;;6.22;4.22;;;7.60;80.30;;;;;;5077074;28;20043;-81
2023/01/27 05:09:34;;;;;;;5.82;4.43;;;7.60;80.40;;;;;;5076336;28;20054;-80
2023/01/27 05:11:59;;;;;;;6.30;4.10;;;7.50;80.30;;;;;;5076433;28;20051;-79
2023/01/27 05:14:25;;;;;;;5.45;4.20;;;7.50;80.30;;;;;;5076284;28;20032;-80
2023/01/27 05:16:51;;;;;;;5.25;3.95;;;7.60;80.30;;;;;;5076531;28;20104;-80
2023/01/27 05:19:16;;;;;;;5.50;3.95;;;7.50;80.20;;;;;;5094023;28;20033;-80
2023/01/27 05:21:43;;;;;;;5.55;3.97;;;7.50;80.20;;;;;;5076555;28;20090;-80
2023/01/27 05:24:10;;;;;;;6.10;4.60;;;7.60;80.30;;;;;;5093730;28;20473;-81
2023/01/27 05:26:35;;;;;;;6.68;4.40;;;7.60;80.30;;;;;;5059350;28;20046;-82
2023/01/27 05:29:01;;;;;;;5.95;4.43;;;7.50;80.30;;;;;;5076339;28;20032;-80
2023/01/27 05:31:30;;;;;;;5.20;3.95;;;7.60;80.30;;;;;;5076041;28;20119;-79
2023/01/27 05:33:58;;;;;;;5.15;3.80;;;7.60;80.30;;;;;;5075899;28;20127;-79
2023/01/27 05:36:25;;;;;;;5.45;3.92;;;7.50;80.30;;;;;;5075848;28;20043;-78
2023/01/27 05:38:51;;;;;;;5.45;4.28;;;7.50;80.30;;;;;;5093455;28;20530;-79
2023/01/27 05:41:18;;;;;;;5.40;4.10;;;7.50;80.30;;;;;;5075811;28;20024;-78
2023/01/27 05:43:46;;;;;;;5.63;4.03;;;7.50;80.20;;;;;;5075478;28;20488;-78
2023/01/27 05:46:13;;;;;;;4.43;3.45;;;7.60;80.30;;;;;;5075826;28;20039;-78
2023/01/27 05:48:44;;;;;;;6.13;4.03;;;7.50;80.20;;;;;;5079091;28;20501;-79
2023/01/27 05:51:11;;;;;;;5.00;3.78;;;7.50;80.20;;;;;;5097423;28;20026;-78
2023/01/27 05:53:37;;;;;;;4.88;3.50;;;7.50;80.20;;;;;;5079200;28;20032;-79
2023/01/27 05:56:04;;;;;;;4.90;3.60;;;7.50;80.30;;;;;;5097433;28;20073;-78
2023/01/27 05:58:30;;;;;;;4.45;3.35;;;7.50;80.30;;;;;;5079195;28;20028;-79
2023/01/27 06:00:56;;;;;;;5.30;3.80;;;7.50;80.30;;;;;;5079188;28;20437;-79
2023/01/27 06:03:22;;;;;;;4.60;3.42;;;7.50;80.30;;;;;;5080074;28;20119;-81
2023/01/27 06:05:53;;;;;;;4.68;3.67;;;7.50;80.30;;;;;;5096823;28;20032;-84
2023/01/27 06:08:19;;;;;;;5.28;3.60;;;7.50;80.30;;;;;;5079851;28;20039;-83
2023/01/27 06:10:44;;;;;;;4.38;3.25;;;7.50;80.20;;;;;;5096391;28;20379;-83
2023/01/27 06:13:11;;;;;;;4.97;3.42;;;7.50;80.20;;;;;;5063889;28;20421;-83
2023/01/27 06:15:40;;;;;;;4.82;3.80;;;7.50;80.30;;;;;;5079484;28;20036;-78
2023/01/27 06:18:06;;;;;;;5.50;3.45;;;7.50;80.20;;;;;;5079479;28;20028;-80
2023/01/27 06:20:31;;;;;;;5.65;3.80;;;7.50;80.20;;;;;;5079303;28;20115;-79
2023/01/27 06:22:57;;;;;;;5.07;3.55;;;7.50;80.20;;;;;;5096906;28;20028;-80
2023/01/27 06:25:24;;;;;;;5.05;3.55;;;7.50;80.20;;;;;;5079039;28;20468;-82
2023/01/27 06:27:54;;;;;;;4.78;3.58;;;7.50;80.20;;;;;;5079012;28;20111;-84
2023/01/27 06:30:20;;;;;;;4.63;3.50;;;7.50;80.20;;;;;;5078969;28;20067;-81
2023/01/27 06:32:46;;;;;;;4.15;3.53;;;7.50;80.20;;;;;;5079057;28;20074;-82
2023/01/27 06:35:13;;;;;;;5.15;3.92;;;7.50;80.20;;;;;;5079931;28;20044;-82
2023/01/27 06:37:39;;;;;;;4.25;2.97;;;7.50;80.20;;;;;;5079179;28;20036;-81
2023/01/27 06:40:05;;;;;;;4.53;3.08;;;7.50;80.20;;;;;;5097277;28;20512;-81
2023/01/27 06:42:34;;;;;;;4.80;3.83;;;7.50;80.20;;;;;;5095751;28;20111;-79
2023/01/27 06:45:00;;;;;;;4.43;3.60;;;7.50;80.20;;;;;;5061381;28;20101;-79
2023/01/27 06:47:25;;;;;;;4.82;3.30;;;7.50;80.30;;;;;;5095951;28;20028;-80
2023/01/27 06:49:51;;;;;;;4.38;3.40;;;7.50;80.20;;;;;;5078703;28;20492;-80
2023/01/27 06:52:17;;;;;;;3.53;2.95;;;7.50;80.20;;;;;;5062123;28;20151;-79
2023/01/27 06:54:42;;;;;;;4.70;3.15;;;7.50;80.20;;;;;;5079228;28;20032;-79
2023/01/27 06:57:09;;;;;;;4.32;3.50;;;7.50;80.20;;;;;;5096448;28;20032;-79
2023/01/27 06:59:35;;;;;;;4.45;3.17;;;7.50;80.20;;;;;;5061603;28;20186;-79
2023/01/27 07:02:00;;;;;;;4.25;3.35;;;7.50;80.20;;;;;;5096768;28;20056;-79
2023/01/27 07:04:26;;;;;;;3.67;2.80;;;7.40;80.20;;;;;;5096952;28;20036;-79
2023/01/27 07:06:52;;;;;;;4.32;3.03;;;7.50;80.20;;;;;;5078213;28;20032;-78
2023/01/27 07:09:17;;;;;;;4.43;3.05;;;7.40;80.20;;;;;;5062066;28;20062;-79
2023/01/27 07:11:44;;;;;;;4.38;3.22;;;7.50;80.20;;;;;;5078330;28;20040;-79
2023/01/27 07:14:10;;;;;;;4.32;3.22;;;7.50;80.20;;;;;;5061533;28;20028;-79
2023/01/27 07:16:35;;;;;;;3.85;3.10;;;7.40;80.20;;;;;;5079017;28;20035;-80
2023/01/27 07:19:01;;;;;;;4.30;3.20;;;7.40;80.20;;;;;;5078431;28;20024;-80
2023/01/27 07:21:27;;;;;;;4.10;3.17;;;7.40;80.20;;;;;;5078292;28;20036;-80
2023/01/27 07:23:52;;;;;;;3.67;2.88;;;7.40;80.20;;;;;;5061978;28;20102;-79
2023/01/27 07:26:18;;;;;;;3.92;2.95;;;7.40;80.20;;;;;;5061585;28;20032;-79
2023/01/27 07:28:44;;;;;;;5.07;3.45;;;7.40;80.30;;;;;;5078098;28;20115;-82
2023/01/27 07:31:09;;;;;;;5.00;3.05;;;7.40;80.30;;;;;;5061476;28;20088;-81
2023/01/27 07:33:36;;;;;;;4.32;3.38;;;7.40;80.30;;;;;;5077841;28;20060;-80
2023/01/27 07:36:01;;;;;;;4.30;3.13;;;7.40;80.30;;;;;;5077830;28;20081;-80
2023/01/27 07:38:27;;;;;;;4.10;3.08;;;7.40;80.30;;;;;;5078098;28;20028;-79
2023/01/27 07:40:53;;;;;;;4.05;3.10;;;7.40;80.30;;;;;;5078571;28;20376;-81
2023/01/27 07:43:19;;;;;;;3.75;3.00;;;7.40;80.30;;;;;;5095305;28;20513;-81
2023/01/27 07:45:49;;;;;;;3.60;2.92;;;7.30;80.30;;;;;;5077635;28;20044;-80
2023/01/27 07:48:15;;;;;;;4.00;3.10;;;7.30;80.30;;;;;;5061795;28;20107;-80
2023/01/27 07:50:41;;;;;;;4.15;3.28;;;7.30;80.30;;;;;;5061045;28;20016;-80
2023/01/27 07:53:07;;;;;;;3.90;3.08;;;7.30;80.30;;;;;;5095299;28;20035;-78
2023/01/27 07:55:33;;;;;;;4.50;3.22;;;7.30;80.30;;;;;;5061484;28;20039;-79
2023/01/27 07:57:58;;;;;;;3.63;2.90;;;7.30;80.30;;;;;;5094301;28;20030;-80
2023/01/27 08:00:24;;;;;;;4.18;3.20;;;7.30;80.30;;;;;;5094430;28;20107;-80
2023/01/27 08:02:51;;;;;;;3.28;2.72;;;7.30;80.40;;;;;;5094160;28;20173;-80
2023/01/27 08:05:17;;;;;;;3.95;3.05;;;7.30;80.40;;;;;;5077561;28;20476;-81
2023/01/27 08:07:43;;;;;;;3.20;2.58;;;7.30;80.30;;;;;;5077505;28;20028;-81
2023/01/27 08:10:10;;;;;;;3.78;2.78;;;7.30;80.30;;;;;;5076812;28;20020;-80
2023/01/27 08:12:35;;;;;;;4.07;3.13;;;7.30;80.30;;;;;;5077308;28;20039;-81
2023/01/27 08:15:01;;;;;;;3.47;2.80;;;7.30;80.30;;;;;;5076898;28;20035;-81
2023/01/27 08:17:27;;;;;;;3.58;3.20;;;7.30;80.30;;;;;;5077273;28;20024;-81
2023/01/27 08:19:53;;;;;;;3.75;2.85;;;7.30;80.30;;;;;;5093735;28;20028;-81
2023/01/27 08:22:22;;;;;;;3.65;3.08;;;7.30;80.30;;;;;;5094160;28;20024;-81
2023/01/27 08:24:48;;;;;;;3.30;2.85;;;7.20;80.30;;;;;;5076834;28;20032;-81
2023/01/27 08:27:15;;;;;;;3.40;2.78;;;7.20;80.30;;;;;;5077274;28;20020;-81
2023/01/27 08:29:41;;;;;;;3.40;2.90;;;7.20;80.90;;;;;;5078151;28;20456;-80
2023/01/27 08:32:07;;;;;;;3.30;2.67;;;7.20;80.20;;;;;;5077837;28;20105;-82
2023/01/27 08:34:33;;;;;;;3.13;2.70;;;7.30;80.30;;;;;;5094774;28;20544;-80
2023/01/27 08:36:59;;;;;;;3.35;2.67;;;7.20;80.20;;;;;;5076610;28;20024;-80
2023/01/27 08:39:25;;;;;;;3.40;2.55;;;7.20;80.30;;;;;;5060153;28;20077;-81
2023/01/27 08:41:50;;;;;;;3.42;2.72;;;7.20;80.20;;;;;;5093638;28;20028;-81
2023/01/27 08:44:16;;;;;;;3.22;2.70;;;7.20;80.20;;;;;;5094337;28;20035;-81
2023/01/27 08:46:42;;;;;;;3.40;2.80;;;7.20;80.20;;;;;;5094868;28;20457;-82
2023/01/27 08:49:08;;;;;;;3.53;2.90;;;7.20;80.20;;;;;;5077473;28;20024;-81
2023/01/27 08:51:33;;;;;;;3.63;2.78;;;7.20;80.30;;;;;;5060766;28;20031;-81
2023/01/27 08:53:59;;;;;;;3.60;2.90;;;7.20;80.20;;;;;;5094772;28;20028;-81
2023/01/27 08:56:25;;;;;;;3.33;2.65;;;7.20;80.20;;;;;;5094692;28;20042;-81
2023/01/27 08:58:51;;;;;;;3.50;2.70;;;7.20;80.20;;;;;;5076962;28;20361;-81
2023/01/27 09:01:18;;;;;;;3.22;2.53;;;7.20;80.20;;;;;;5076280;28;20614;-81
2023/01/27 09:03:44;;;;;;;2.80;2.40;;;7.20;80.20;;;;;;5076646;28;20024;-81
2023/01/27 09:06:11;;;;;;;2.92;2.50;;;7.20;80.10;;;;;;5076410;28;20084;-80
2023/01/27 09:08:39;;;;;;;3.60;2.83;;;7.20;80.20;;;;;;5076808;28;20097;-80
2023/01/27 09:11:13;;;;;;;3.05;2.70;;;7.20;80.20;;;;;;5076409;28;20028;-81
2023/01/27 09:13:40;;;;;;;3.80;2.75;;;7.20;80.20;;;;;;5076804;28;20041;-81
2023/01/27 09:16:06;;;;;;;3.58;2.75;;;7.20;80.10;;;;;;5076722;28;20106;-81
2023/01/27 09:18:32;;;;;;;2.92;2.40;;;7.20;80.20;;;;;;5076523;28;20032;-80
2023/01/27 09:21:03;;;;;;;3.03;2.50;;;7.20;80.20;;;;;;5060684;28;20399;-82
2023/01/27 09:23:29;;;;;;;3.03;2.53;;;7.20;80.20;;;;;;5080738;28;20425;-82
2023/01/27 09:25:55;;;;;;;2.83;2.40;;;7.20;80.20;;;;;;5080390;28;20075;-82
2023/01/27 09:28:21;;;;;;;2.85;2.35;;;7.20;80.10;;;;;;5080317;28;20024;-79
2023/01/27 09:30:46;;;;;;;2.90;2.60;;;7.20;80.10;;;;;;5063816;28;20032;-84
2023/01/27 09:33:13;;;;;;;2.83;2.40;;;7.20;80.10;;;;;;5098297;28;20048;-81
2023/01/27 09:35:51;;;;;;;3.10;2.58;;;7.20;80.10;;;;;;5080514;28;20040;-82
2023/01/27 09:38:21;;;;;;;2.70;2.50;;;7.20;80.10;;;;;;5080659;28;20445;-80
2023/01/27 09:40:47;;;;;;;2.97;2.70;;;7.20;80.10;;;;;;5080212;28;20110;-81
2023/01/27 09:43:27;;;;;;;3.30;2.78;;;7.20;80.00;;;;;;5080483;28;20602;-82
2023/01/27 09:46:13;;;;;;;3.10;2.75;;;7.20;80.10;;;;;;5098135;28;20056;-82
2023/01/27 09:48:57;;;;;;;3.58;2.58;;;7.30;80.10;;;;;;5080044;28;20028;-81
2023/01/27 09:51:50;;;;;;;2.95;2.40;;;7.30;80.10;;;;;;5080284;28;20519;-82
2023/01/27 09:54:42;;;;;;;3.05;2.67;;;7.30;80.10;;;;;;5080357;28;20111;-81
2023/01/27 09:57:25;;;;;;;3.53;2.53;;;7.20;80.00;;;;;;5098265;28;20103;-82
2023/01/27 10:00:00;;;;;;;3.42;2.67;;;7.20;80.10;;;;;;5080177;28;20130;-80
2023/01/27 10:03:00;;;;;;;2.95;2.50;;;7.20;80.10;;;;;;5080666;28;20055;-82
2023/01/27 10:05:50;;;;;;;2.72;2.50;;;7.20;80.10;;;;;;5098510;28;20036;-82
2023/01/27 10:08:36;;;;;;;2.70;2.45;;;7.30;80.10;;;;;;5097753;28;20123;-83
2023/01/27 10:11:24;;;;;;;2.42;2.15;;;7.30;80.10;;;;;;5063341;28;20032;-81
2023/01/27 10:14:36;;;;;;;3.35;2.58;;;7.20;80.10;;;;;;5098127;28;20139;-82
2023/01/27 10:17:35;;;;;;;2.92;2.53;;;7.30;80.20;;;;;;5080456;28;20028;-83
2023/01/27 10:20:04;;;;;;;2.78;2.50;;;7.20;80.00;;;;;;5079954;28;20028;-83
2023/01/27 10:22:58;;;;;;;2.67;2.35;;;7.30;80.10;;;;;;5062996;28;20024;-84
2023/01/27 10:25:39;;;;;;;3.25;2.67;;;7.30;80.20;;;;;;5063521;28;20529;-85
2023/01/27 10:28:12;;;;;;;3.03;2.58;;;7.30;80.10;;;;;;5079586;28;20039;-83
2023/01/27 10:30:48;;;;;;;3.47;2.65;;;7.30;80.10;;;;;;5079978;28;20048;-83
2023/01/27 10:33:19;;;;;;;3.60;2.70;;;7.30;80.10;;;;;;5069453;28;20056;-84
2023/01/27 10:35:58;;;;;;;3.03;2.45;;;7.30;80.20;;;;;;5056013;28;20039;-82
2023/01/27 10:38:41;;;;;;;2.70;2.45;;;7.30;80.10;;;;;;5056175;28;20029;-82
2023/01/27 10:41:10;;;;;;;4.00;2.97;;;7.30;80.10;;;;;;5039083;28;20031;-79
2023/01/27 10:43:48;;;;;;;3.30;2.90;;;7.30;80.00;;;;;;5055840;28;20075;-81
2023/01/27 10:46:20;;;;;;;3.67;3.20;;;7.30;80.10;;;;;;5056096;28;20036;-81
2023/01/27 10:49:29;;;;;;;3.70;2.83;;;7.30;80.00;;;;;;5055577;28;20054;-84
2023/01/27 10:52:07;;;;;;;2.97;2.45;;;7.30;80.10;;;;;;4976638;28;20097;-83
2023/01/27 10:54:40;;;;;;;3.70;2.90;;;7.30;80.00;;;;;;4943853;28;20050;-82
2023/01/27 10:57:29;;;;;;;3.60;2.80;;;7.30;80.00;;;;;;5028077;28;20052;-82
2023/01/27 11:00:04;;;;;;;3.15;2.50;;;7.40;80.10;;;;;;5055584;28;20044;-81
2023/01/27 11:02:41;;;;;;;3.95;2.88;;;7.30;80.00;;;;;;5055515;28;20126;-85
2023/01/27 11:05:34;;;;;;;3.17;2.67;;;7.40;80.00;;;;;;5038898;28;20373;-82
2023/01/27 11:08:10;;;;;;;3.30;2.65;;;7.40;80.00;;;;;;5030664;28;20116;-83
2023/01/27 11:11:42;;;;;;;3.55;2.83;;;7.40;80.00;;;;;;5055521;28;20029;-83
2023/01/27 11:13:29;;;;;;;2.85;2.55;;;7.40;80.00;;;;;;5056330;28;20029;-82
2023/01/27 11:15:56;;;;;;;3.58;2.80;;;7.40;80.00;;;;;;5038499;28;20024;-82
2023/01/27 11:18:24;;;;;;;3.03;2.38;;;7.40;80.00;;;;;;5055323;28;20446;-82
2023/01/27 11:21:03;;;;;;;4.13;3.05;;;7.40;80.00;;;;;;5038318;28;20473;-84
2023/01/27 11:23:32;;;;;;;3.25;2.78;;;7.40;79.90;;;;;;5054997;28;20223;-83
2023/01/27 11:26:20;;;;;;;3.33;2.80;;;7.40;79.90;;;;;;5054944;28;20051;-82
2023/01/27 11:29:14;;;;;;;3.30;2.67;;;7.40;80.00;;;;;;5054939;28;20025;-84
2023/01/27 11:32:06;;;;;;;3.35;2.83;;;7.40;80.00;;;;;;5055086;28;20027;-84
2023/01/27 11:35:02;;;;;;;3.17;2.63;;;7.50;79.90;;;;;;5054491;28;20120;-82
2023/01/27 11:37:33;;;;;;;;;;;7.40;79.90;;;;;;5054912;28;20484;-81
2023/01/27 11:40:00;;;;;;;2.75;2.30;;;7.40;79.90;;;;;;5055485;28;20000;-82
2023/01/27 11:42:35;;;;;;;2.85;2.40;;;7.50;79.80;;;;;;5038257;28;20431;-83
2023/01/27 11:45:02;;;;;;;3.45;2.78;;;7.40;80.00;;;;;;5053777;28;20033;-83
2023/01/27 11:47:31;;;;;;;3.53;2.53;;;7.50;80.00;;;;;;5055840;28;20030;-82
2023/01/27 11:49:59;;;;;;;3.70;3.15;;;7.50;80.00;;;;;;5054386;28;20060;-80
2023/01/27 11:52:27;;;;;;;3.42;2.78;;;7.50;80.00;;;;;;5037564;28;20036;-81
2023/01/27 11:55:08;;;;;;;3.47;2.67;;;7.50;80.00;;;;;;5054183;28;20025;-81
2023/01/27 11:57:36;;;;;;;3.47;2.67;;;7.50;80.00;;;;;;5054615;28;20029;-79
2023/01/27 12:00:09;;;;;;;3.50;2.85;;;7.60;80.00;;;;;;5038291;28;20107;-80
2023/01/27 12:02:46;;;;;;;3.85;2.80;;;7.60;80.00;;;;;;5054374;28;20478;-80
2023/01/27 12:05:17;;;;;;;4.00;2.90;;;7.60;80.00;;;;;;5054470;28;20056;-80
2023/01/27 12:08:00;;;;;;;3.83;2.85;;;7.60;79.90;;;;;;5055024;28;20033;-80
2023/01/27 12:10:40;;;;;;;3.45;2.70;;;7.60;79.90;;;;;;5037228;28;20510;-80
2023/01/27 12:13:18;;;;;;;2.88;2.42;;;7.60;79.90;;;;;;5053944;28;20075;-81
2023/01/27 12:15:48;;;;;;;3.67;2.83;;;7.60;79.90;;;;;;5055274;28;20104;-81
2023/01/27 12:18:14;;;;;;;3.40;2.70;;;7.60;79.90;;;;;;5053461;28;20055;-81
2023/01/27 12:20:46;;;;;;;3.22;2.55;;;7.70;79.90;;;;;;5053844;28;20032;-80
2023/01/27 12:23:38;;;;;;;3.95;2.45;;;7.70;80.00;;;;;;5037273;28;20061;-81
2023/01/27 12:26:09;;;;;;;3.75;2.72;;;7.70;80.00;;;;;;5053851;28;20408;-80
2023/01/27 12:28:51;;;;;;;3.75;2.88;;;7.70;79.90;;;;;;5054448;28;20470;-78
2023/01/27 12:31:23;;;;;;;3.72;2.83;;;7.80;80.00;;;;;;5055240;28;20066;-81
2023/01/27 12:34:04;;;;;;;3.35;2.55;;;7.80;80.00;;;;;;5053380;28;20060;-79
2023/01/27 12:36:38;;;;;;;3.35;2.70;;;7.80;79.90;;;;;;5037021;28;20385;-81
2023/01/27 12:39:06;;;;;;;3.33;2.55;;;7.80;79.90;;;;;;5054719;28;20434;-80
2023/01/27 12:41:35;;;;;;;3.60;2.88;;;7.80;79.90;;;;;;5053439;28;20029;-81
2023/01/27 12:44:06;;;;;;;3.10;2.80;;;7.80;79.90;;;;;;5053799;28;20029;-82
2023/01/27 12:46:32;;;;;;;3.83;2.92;;;7.90;79.90;;;;;;5053370;28;20056;-80
2023/01/27 12:49:10;;;;;;;3.60;2.72;;;7.90;79.90;;;;;;5053462;28;20461;-81
2023/01/27 12:51:49;;;;;;;3.30;2.63;;;7.90;79.90;;;;;;5053361;28;20094;-80
2023/01/27 12:54:15;;;;;;;3.38;2.70;;;7.90;79.90;;;;;;5053516;28;20028;-81
2023/01/27 12:56:42;;;;;;;3.63;2.72;;;7.90;79.80;;;;;;5053157;28;20116;-81
2023/01/27 12:59:15;;;;;;;3.38;2.72;;;7.90;79.80;;;;;;5053933;28;20029;-81
2023/01/27 13:01:43;;;;;;;3.53;2.60;;;8.00;79.90;;;;;;5053365;28;20507;-80
2023/01/27 13:04:20;;;;;;;3.15;2.58;;;8.00;79.80;;;;;;5053184;28;20090;-81
2023/01/27 13:06:56;;;;;;;3.85;2.85;;;8.00;79.80;;;;;;5053049;28;20486;-79
2023/01/27 13:09:30;;;;;;;3.92;2.90;;;8.00;79.80;;;;;;5053933;28;20071;-80
2023/01/27 13:12:00;;;;;;;4.68;2.88;;;8.00;79.80;;;;;;5053303;28;20037;-80
2023/01/27 13:14:37;;;;;;;2.85;2.45;;;8.00;79.80;;;;;;5053352;28;20029;-83
2023/01/27 13:17:03;;;;;;;3.58;2.80;;;8.00;79.80;;;;;;5053336;28;20025;-80
2023/01/27 13:19:34;;;;;;;3.30;2.75;;;8.10;79.80;;;;;;5053872;28;20029;-81
2023/01/27 13:22:03;;;;;;;3.65;2.75;;;8.10;79.80;;;;;;5052873;28;20036;-81
2023/01/27 13:24:41;;;;;;;4.03;2.75;;;8.10;79.70;;;;;;5052788;28;20389;-80
2023/01/27 13:27:15;;;;;;;3.20;2.60;;;8.10;79.70;;;;;;5053680;28;20092;-82
2023/01/27 13:29:45;;;;;;;;;;;8.10;79.70;;;;;;5054465;28;20062;-82
2023/01/27 13:32:22;;;;;;;2.75;2.33;;;8.10;79.70;;;;;;5052975;28;19905;-81
2023/01/27 13:34:56;;;;;;;2.90;2.38;;;8.10;79.60;;;;;;5036468;28;20069;-80
2023/01/27 13:37:31;;;;;;;3.58;2.83;;;8.10;79.60;;;;;;5052706;28;20107;-80
2023/01/27 13:40:10;;;;;;;3.58;2.70;;;8.10;79.70;;;;;;5052958;28;20031;-78
2023/01/27 13:42:54;;;;;;;3.60;2.78;;;8.10;79.70;;;;;;5053572;28;20071;-81
2023/01/27 13:45:23;;;;;;;4.25;3.08;;;8.10;79.70;;;;;;5053958;28;20114;-80